createdAt,value
2019-01-10T00:00:07.323Z,8.05
2019-01-10T00:01:15.572Z,14.45
2019-01-10T00:02:20.485Z,17.90
2019-01-10T00:03:25.219Z,11.35
2019-01-10T00:04:30.287Z,8.70
2019-01-10T00:05:35.155Z,11.60
2019-01-10T00:06:40.276Z,15.03
2019-01-10T00:07:45.346Z,14.63
2019-01-10T00:08:50.190Z,7.58
2019-01-10T00:09:55.260Z,13.53
2019-01-10T00:11:00.045Z,9.70
2019-01-10T00:12:04.870Z,10.65
2019-01-10T00:13:11.666Z,14.38
2019-01-10T00:14:16.520Z,9.55
2019-01-10T00:15:21.284Z,12.33
2019-01-10T00:16:25.991Z,10.20
2019-01-10T00:17:30.864Z,14.50
2019-01-10T00:18:37.793Z,9.30
2019-01-10T00:19:42.728Z,11.12
2019-01-10T00:20:49.778Z,12.03
2019-01-10T00:21:54.745Z,17.45
2019-01-10T00:22:59.610Z,8.20
2019-01-10T00:24:06.520Z,16.73
2019-01-10T00:25:12.493Z,12.95
2019-01-10T00:26:17.275Z,13.15
2019-01-10T00:27:22.070Z,12.40
2019-01-10T00:28:29.873Z,11.55
2019-01-10T00:29:34.710Z,14.68
2019-01-10T00:30:39.560Z,12.37
2019-01-10T00:31:45.021Z,12.82
2019-01-10T00:32:49.960Z,15.28
2019-01-10T00:33:54.727Z,14.20
2019-01-10T00:34:59.511Z,8.78
2019-01-10T00:36:04.395Z,11.28
2019-01-10T00:37:09.104Z,8.35
2019-01-10T00:38:14.277Z,12.18
2019-01-10T00:39:24.116Z,10.35
2019-01-10T00:40:29.020Z,12.37
2019-01-10T00:41:33.796Z,14.58
2019-01-10T00:42:38.960Z,13.03
2019-01-10T00:43:45.351Z,17.15
2019-01-10T00:46:17.908Z,16.23
2019-01-10T00:47:34.596Z,11.30
2019-01-10T00:48:50.910Z,9.50
2019-01-10T00:50:07.307Z,18.57
2019-01-10T00:51:24.908Z,9.70
2019-01-10T00:52:41.899Z,10.23
2019-01-10T00:53:57.927Z,14.45
2019-01-10T00:55:14.181Z,9.65
2019-01-10T00:56:30.378Z,7.37
2019-01-10T00:57:46.730Z,13.05
2019-01-10T00:59:03.514Z,14.15
2019-01-10T01:00:19.580Z,17.77
2019-01-10T01:01:35.780Z,10.48
2019-01-10T01:02:51.741Z,10.45
2019-01-10T01:04:07.830Z,11.30
2019-01-10T01:05:23.666Z,13.72
2019-01-10T01:06:39.988Z,14.33
2019-01-10T01:07:56.454Z,7.22
2019-01-10T01:09:12.231Z,14.98
2019-01-10T01:10:28.477Z,12.60
2019-01-10T01:11:44.889Z,13.00
2019-01-10T01:13:00.797Z,10.10
2019-01-10T01:14:16.760Z,16.87
2019-01-10T01:15:33.617Z,11.78
2019-01-10T01:16:49.781Z,17.92
2019-01-10T01:18:06.220Z,21.85
2019-01-10T01:19:22.610Z,13.20
2019-01-10T01:20:39.009Z,13.83
2019-01-10T01:21:55.264Z,14.83
2019-01-10T01:23:11.668Z,12.47
2019-01-10T01:24:27.971Z,12.00
2019-01-10T01:25:43.976Z,12.18
2019-01-10T01:27:00.230Z,15.35
2019-01-10T01:28:16.271Z,9.90
2019-01-10T01:29:32.260Z,16.23
2019-01-10T01:30:48.996Z,21.33
2019-01-10T01:32:05.973Z,13.28
2019-01-10T01:33:22.760Z,9.75
2019-01-10T01:34:38.847Z,18.40
2019-01-10T01:35:55.168Z,9.95
2019-01-10T01:37:11.036Z,15.30
2019-01-10T01:38:27.029Z,12.73
2019-01-10T01:39:43.087Z,13.00
2019-01-10T01:40:59.528Z,12.63
2019-01-10T01:42:15.509Z,21.33
2019-01-10T01:43:37.015Z,17.52
2019-01-10T01:44:53.145Z,18.82
2019-01-10T01:46:09.250Z,14.40
2019-01-10T01:47:25.146Z,14.05
2019-01-10T01:48:41.964Z,16.42
2019-01-10T01:49:59.260Z,15.93
2019-01-10T01:51:15.556Z,11.70
2019-01-10T01:52:31.663Z,19.52
2019-01-10T01:53:48.402Z,9.08
2019-01-10T01:55:04.904Z,14.00
2019-01-10T01:56:21.270Z,15.98
2019-01-10T01:57:37.521Z,21.17
2019-01-10T01:58:53.492Z,22.85
2019-01-10T02:00:09.673Z,10.20
2019-01-10T02:01:24.780Z,12.03
2019-01-10T02:02:40.768Z,15.40
2019-01-10T02:03:56.926Z,20.25
2019-01-10T02:05:13.790Z,15.98
2019-01-10T02:06:30.185Z,13.05
2019-01-10T02:07:46.392Z,11.05
2019-01-10T02:09:02.677Z,19.85
2019-01-10T02:10:18.567Z,12.20
2019-01-10T02:11:34.847Z,11.57
2019-01-10T02:12:52.384Z,18.92
2019-01-10T02:14:09.159Z,12.73
2019-01-10T02:15:25.512Z,12.63
2019-01-10T02:16:41.847Z,28.62
2019-01-10T02:17:58.170Z,13.40
2019-01-10T02:19:14.415Z,16.52
2019-01-10T02:20:30.396Z,12.50
2019-01-10T02:21:48.233Z,30.72
2019-01-10T02:23:07.360Z,13.85
2019-01-10T02:24:24.156Z,12.65
2019-01-10T02:25:40.432Z,23.02
2019-01-10T02:26:56.775Z,9.70
2019-01-10T02:28:13.550Z,15.30
2019-01-10T02:29:29.441Z,11.55
2019-01-10T02:30:45.783Z,14.38
2019-01-10T02:32:01.757Z,19.85
2019-01-10T02:33:17.898Z,15.18
2019-01-10T02:34:34.164Z,9.78
2019-01-10T02:35:51.030Z,10.68
2019-01-10T02:37:06.175Z,10.28
2019-01-10T02:38:21.966Z,17.75
2019-01-10T02:39:38.182Z,14.15
2019-01-10T02:40:54.494Z,11.88
2019-01-10T02:42:10.793Z,15.83
2019-01-10T02:43:27.208Z,15.53
2019-01-10T02:44:43.236Z,14.85
2019-01-10T02:45:59.214Z,15.78
2019-01-10T02:47:15.475Z,23.95
2019-01-10T02:48:31.813Z,13.22
2019-01-10T02:49:47.824Z,14.90
2019-01-10T02:51:04.079Z,17.17
2019-01-10T02:52:20.148Z,17.82
2019-01-10T02:53:36.075Z,21.17
2019-01-10T02:54:52.327Z,15.88
2019-01-10T02:56:08.331Z,17.75
2019-01-10T02:57:24.901Z,12.53
2019-01-10T02:58:41.251Z,11.45
2019-01-10T02:59:57.175Z,17.60
2019-01-10T03:01:14.046Z,9.30
2019-01-10T03:02:29.990Z,17.98
2019-01-10T03:03:46.008Z,21.05
2019-01-10T03:05:02.103Z,27.73
2019-01-10T03:06:18.385Z,16.55
2019-01-10T03:07:34.743Z,39.23
2019-01-10T03:08:51.363Z,29.18
2019-01-10T03:10:07.774Z,33.05
2019-01-10T03:11:23.980Z,13.53
2019-01-10T03:12:39.985Z,13.75
2019-01-10T03:13:56.456Z,11.88
2019-01-10T03:15:12.456Z,16.10
2019-01-10T03:16:29.134Z,14.98
2019-01-10T03:17:45.366Z,19.80
2019-01-10T03:19:02.218Z,16.95
2019-01-10T03:20:18.267Z,16.37
2019-01-10T03:21:34.193Z,16.35
2019-01-10T03:22:50.443Z,14.28
2019-01-10T03:24:06.623Z,13.08
2019-01-10T03:25:22.770Z,13.83
2019-01-10T03:26:39.498Z,15.18
2019-01-10T03:27:55.691Z,16.42
2019-01-10T03:29:12.335Z,12.93
2019-01-10T03:30:28.532Z,11.60
2019-01-10T03:31:44.659Z,17.02
2019-01-10T03:33:04.295Z,12.93
2019-01-10T03:34:21.261Z,12.10
2019-01-10T03:35:37.368Z,12.20
2019-01-10T03:36:54.099Z,14.10
2019-01-10T03:38:13.213Z,24.85
2019-01-10T03:39:30.942Z,10.88
2019-01-10T03:41:06.549Z,11.25
2019-01-10T03:42:13.055Z,18.42
2019-01-10T03:43:29.458Z,13.60
2019-01-10T03:44:45.544Z,10.43
2019-01-10T03:46:01.791Z,14.98
2019-01-10T03:47:18.172Z,19.67
2019-01-10T03:48:34.675Z,15.58
2019-01-10T03:49:50.658Z,13.93
2019-01-10T03:51:07.123Z,16.45
2019-01-10T03:52:22.318Z,13.80
2019-01-10T03:55:23.130Z,17.05
2019-01-10T03:56:39.538Z,20.12
2019-01-10T03:57:56.287Z,13.50
2019-01-10T03:59:12.449Z,15.90
2019-01-10T04:00:29.148Z,9.18
2019-01-10T04:01:52.873Z,23.35
2019-01-10T04:03:16.610Z,22.52
2019-01-10T04:04:32.666Z,16.00
2019-01-10T04:05:47.832Z,19.65
2019-01-10T04:07:11.585Z,19.77
2019-01-10T04:08:16.311Z,16.07
2019-01-10T04:09:52.270Z,15.30
2019-01-10T04:11:06.047Z,13.43
2019-01-10T04:12:23.024Z,29.18
2019-01-10T04:13:39.980Z,22.00
2019-01-10T04:14:56.217Z,14.50
2019-01-10T04:16:12.300Z,20.75
2019-01-10T04:17:28.644Z,10.85
2019-01-10T04:18:45.055Z,10.65
2019-01-10T04:20:03.259Z,13.60
2019-01-10T04:21:19.964Z,13.55
2019-01-10T04:22:36.933Z,13.22
2019-01-10T04:23:55.205Z,17.10
2019-01-10T04:25:11.269Z,11.48
2019-01-10T04:26:27.086Z,14.47
2019-01-10T04:27:43.292Z,15.48
2019-01-10T04:28:59.421Z,18.70
2019-01-10T04:30:15.800Z,10.85
2019-01-10T04:31:32.040Z,13.13
2019-01-10T04:32:48.894Z,11.38
2019-01-10T04:34:05.357Z,16.70
2019-01-10T04:35:22.181Z,20.95
2019-01-10T04:36:37.346Z,15.68
2019-01-10T04:38:12.805Z,11.73
2019-01-10T04:39:19.007Z,16.12
2019-01-10T04:40:35.242Z,14.18
2019-01-10T04:41:52.299Z,16.70
2019-01-10T04:43:08.963Z,16.27
2019-01-10T04:44:25.147Z,10.48
2019-01-10T04:45:41.194Z,13.78
2019-01-10T04:46:57.218Z,15.50
2019-01-10T04:48:13.537Z,16.45
2019-01-10T04:49:29.483Z,14.53
2019-01-10T04:50:45.864Z,12.75
2019-01-10T04:52:02.464Z,11.70
2019-01-10T04:53:17.375Z,15.98
2019-01-10T04:56:14.827Z,15.60
2019-01-10T04:57:20.890Z,10.70
2019-01-10T04:58:37.092Z,31.97
2019-01-10T04:59:53.136Z,10.32
2019-01-10T05:01:09.247Z,19.10
2019-01-10T05:02:25.267Z,17.48
2019-01-10T05:03:41.485Z,20.12
2019-01-10T05:04:56.471Z,15.45
2019-01-10T05:07:46.777Z,20.97
2019-01-10T05:10:19.635Z,12.43
2019-01-10T05:11:36.083Z,13.65
2019-01-10T05:12:52.958Z,23.20
2019-01-10T05:14:16.359Z,11.40
2019-01-10T05:15:26.881Z,16.37
2019-01-10T05:16:43.031Z,18.75
2019-01-10T05:17:59.034Z,16.67
2019-01-10T05:19:15.297Z,20.40
2019-01-10T05:20:31.608Z,19.42
2019-01-10T05:21:47.611Z,23.38
2019-01-10T05:23:03.842Z,14.80
2019-01-10T05:24:19.946Z,13.25
2019-01-10T05:25:36.236Z,9.90
2019-01-10T05:26:52.674Z,13.58
2019-01-10T05:28:10.947Z,15.85
2019-01-10T05:29:27.823Z,16.12
2019-01-10T05:30:44.143Z,10.43
2019-01-10T05:32:02.521Z,22.87
2019-01-10T05:33:18.812Z,13.00
2019-01-10T05:34:35.350Z,12.33
2019-01-10T05:35:51.536Z,18.77
2019-01-10T05:38:52.927Z,21.65
2019-01-10T05:39:59.027Z,19.80
2019-01-10T05:41:14.912Z,15.18
2019-01-10T05:42:30.806Z,22.30
2019-01-10T05:43:48.337Z,16.35
2019-01-10T05:45:05.008Z,17.37
2019-01-10T05:46:21.369Z,15.75
2019-01-10T05:47:37.631Z,11.57
2019-01-10T05:48:54.067Z,15.83
2019-01-10T05:50:10.647Z,15.18
2019-01-10T05:51:29.961Z,12.43
2019-01-10T05:52:46.165Z,14.30
2019-01-10T05:54:02.838Z,16.10
2019-01-10T05:55:18.932Z,14.78
2019-01-10T05:56:35.693Z,11.85
2019-01-10T05:57:52.077Z,13.55
2019-01-10T05:59:07.953Z,17.32
2019-01-10T06:00:24.196Z,21.42
2019-01-10T06:01:40.201Z,10.43
2019-01-10T06:02:56.319Z,18.92
2019-01-10T06:04:12.578Z,15.60
2019-01-10T06:05:28.560Z,22.87
2019-01-10T06:06:44.764Z,23.47
2019-01-10T06:08:02.043Z,14.03
2019-01-10T06:09:18.039Z,12.70
2019-01-10T06:10:33.044Z,17.23
2019-01-10T06:13:23.165Z,17.48
2019-01-10T06:14:40.912Z,12.82
2019-01-10T06:15:57.139Z,26.50
2019-01-10T06:17:12.086Z,15.88
2019-01-10T06:20:11.483Z,23.77
2019-01-10T06:21:27.783Z,31.62
2019-01-10T06:22:45.784Z,31.97
2019-01-10T06:24:01.718Z,14.80
2019-01-10T06:25:17.771Z,14.53
2019-01-10T06:26:34.666Z,15.15
2019-01-10T06:27:51.571Z,18.05
2019-01-10T06:29:08.230Z,18.57
2019-01-10T06:30:25.113Z,16.10
2019-01-10T06:31:42.219Z,23.00
2019-01-10T06:33:30.545Z,15.70
2019-01-10T06:34:19.338Z,18.85
2019-01-10T06:37:10.156Z,20.92
2019-01-10T06:38:26.122Z,13.50
2019-01-10T06:39:42.811Z,16.00
2019-01-10T06:40:59.184Z,13.62
2019-01-10T06:42:15.901Z,16.42
2019-01-10T06:43:32.077Z,20.65
2019-01-10T06:44:48.180Z,17.35
2019-01-10T06:46:05.286Z,10.90
2019-01-10T06:47:21.256Z,11.10
2019-01-10T06:48:38.148Z,22.67
2019-01-10T06:49:54.171Z,19.30
2019-01-10T06:51:09.994Z,17.82
2019-01-10T06:52:26.410Z,18.50
2019-01-10T06:53:43.263Z,17.95
2019-01-10T06:54:59.595Z,10.48
2019-01-10T06:56:15.924Z,14.47
2019-01-10T06:57:31.812Z,25.05
2019-01-10T06:58:48.556Z,13.13
2019-01-10T07:00:04.885Z,15.20
2019-01-10T07:01:20.920Z,12.90
2019-01-10T07:02:37.733Z,11.65
2019-01-10T07:03:54.131Z,13.68
2019-01-10T07:05:11.210Z,14.23
2019-01-10T07:06:27.995Z,16.27
2019-01-10T07:07:45.988Z,22.20
2019-01-10T07:09:02.039Z,23.32
2019-01-10T07:10:20.863Z,10.30
2019-01-10T07:11:38.600Z,14.18
2019-01-10T07:12:54.805Z,19.12
2019-01-10T07:14:10.895Z,12.50
2019-01-10T07:20:15.117Z,17.70
2019-01-10T07:21:36.205Z,12.85
2019-01-10T07:22:49.977Z,12.45
2019-01-10T07:24:06.818Z,13.55
2019-01-10T07:25:23.481Z,10.98
2019-01-10T07:26:39.479Z,15.75
2019-01-10T07:27:56.742Z,15.93
2019-01-10T07:29:13.568Z,12.73
2019-01-10T07:30:35.799Z,10.08
2019-01-10T07:31:47.563Z,21.30
2019-01-10T07:33:05.826Z,11.28
2019-01-10T07:34:23.092Z,21.68
2019-01-10T07:35:39.240Z,13.65
2019-01-10T07:36:55.725Z,16.30
2019-01-10T07:38:11.957Z,19.48
2019-01-10T07:39:28.235Z,9.18
2019-01-10T07:40:44.182Z,18.12
2019-01-10T07:42:00.125Z,14.47
2019-01-10T07:43:20.920Z,20.15
2019-01-10T07:44:37.595Z,15.00
2019-01-10T07:45:56.446Z,17.87
2019-01-10T07:47:13.995Z,24.85
2019-01-10T07:48:29.877Z,15.43
2019-01-10T07:49:46.171Z,7.90
2019-01-10T07:51:02.301Z,15.13
2019-01-10T07:52:19.758Z,11.25
2019-01-10T07:53:37.053Z,14.38
2019-01-10T07:54:53.861Z,12.85
2019-01-10T07:56:09.889Z,14.75
2019-01-10T07:57:26.211Z,16.15
2019-01-10T07:58:42.611Z,13.28
2019-01-10T07:59:59.184Z,17.37
2019-01-10T08:01:15.515Z,13.05
2019-01-10T08:02:31.733Z,13.03
2019-01-10T08:03:48.060Z,14.63
2019-01-10T08:05:04.949Z,13.60
2019-01-10T08:06:21.149Z,13.55
2019-01-10T08:07:38.173Z,11.45
2019-01-10T08:08:54.038Z,25.15
2019-01-10T08:10:10.870Z,14.53
2019-01-10T08:12:03.717Z,22.87
2019-01-10T08:13:04.362Z,15.55
2019-01-10T08:14:20.420Z,20.45
2019-01-10T08:15:36.410Z,23.07
2019-01-10T08:16:52.888Z,22.05
2019-01-10T08:18:09.677Z,19.95
2019-01-10T08:19:25.975Z,21.48
2019-01-10T08:20:42.359Z,18.17
2019-01-10T08:22:00.941Z,16.07
2019-01-10T08:23:23.881Z,16.15
2019-01-10T08:24:36.091Z,13.78
2019-01-10T08:25:52.600Z,23.60
2019-01-10T08:27:08.795Z,17.20
2019-01-10T08:28:44.890Z,19.95
2019-01-10T08:29:54.084Z,11.68
2019-01-10T08:31:10.799Z,16.23
2019-01-10T08:32:26.832Z,20.95
2019-01-10T08:33:42.751Z,9.80
2019-01-10T08:34:59.127Z,27.20
2019-01-10T08:36:15.689Z,14.63
2019-01-10T08:37:31.986Z,14.23
2019-01-10T08:38:48.537Z,14.85
2019-01-10T08:40:05.330Z,13.90
2019-01-10T08:41:21.460Z,18.37
2019-01-10T08:42:37.451Z,16.77
2019-01-10T08:43:53.625Z,19.98
2019-01-10T08:45:09.947Z,13.72
2019-01-10T08:46:31.786Z,18.85
2019-01-10T08:47:49.871Z,13.43
2019-01-10T08:49:13.570Z,15.23
2019-01-10T08:50:30.376Z,16.62
2019-01-10T08:51:46.328Z,18.15
2019-01-10T08:53:02.662Z,14.05
2019-01-10T08:54:21.749Z,14.05
2019-01-10T08:55:38.374Z,9.83
2019-01-10T08:56:54.279Z,14.53
2019-01-10T08:58:11.595Z,15.58
2019-01-10T08:59:27.626Z,12.75
2019-01-10T09:00:44.233Z,17.48
2019-01-10T09:02:00.219Z,13.20
2019-01-10T09:03:16.911Z,25.30
2019-01-10T09:04:33.830Z,18.02
2019-01-10T09:05:50.242Z,14.90
2019-01-10T09:07:06.416Z,16.85
2019-01-10T09:08:22.586Z,14.70
2019-01-10T09:09:41.733Z,14.07
2019-01-10T09:10:58.100Z,28.00
2019-01-10T09:12:14.395Z,21.80
2019-01-10T09:13:34.192Z,17.80
2019-01-10T09:14:50.207Z,13.45
2019-01-10T09:16:06.072Z,13.13
2019-01-10T09:17:22.165Z,15.88
2019-01-10T09:18:40.317Z,15.55
2019-01-10T09:19:56.880Z,20.17
2019-01-10T09:21:13.335Z,16.02
2019-01-10T09:22:29.515Z,14.40
2019-01-10T09:23:48.185Z,18.57
2019-01-10T09:25:04.035Z,11.08
2019-01-10T09:26:19.917Z,15.88
2019-01-10T09:27:36.548Z,18.15
2019-01-10T09:28:55.873Z,13.75
2019-01-10T09:30:15.194Z,14.83
2019-01-10T09:31:32.183Z,14.90
2019-01-10T09:32:49.027Z,18.35
2019-01-10T09:34:05.555Z,12.20
2019-01-10T09:35:21.727Z,12.95
2019-01-10T09:36:38.825Z,13.28
2019-01-10T09:37:58.384Z,16.70
2019-01-10T09:39:17.909Z,11.12
2019-01-10T09:40:34.565Z,19.85
2019-01-10T09:41:51.171Z,15.15
2019-01-10T09:43:07.336Z,22.00
2019-01-10T09:44:23.521Z,13.55
2019-01-10T09:45:43.460Z,12.25
2019-01-10T09:46:58.150Z,15.60
2019-01-10T09:48:15.829Z,12.55
2019-01-10T09:49:33.351Z,9.58
2019-01-10T09:50:50.128Z,16.37
2019-01-10T09:52:06.153Z,21.57
2019-01-10T09:53:22.417Z,13.32
2019-01-10T09:54:40.180Z,16.27
2019-01-10T09:55:57.133Z,21.77
2019-01-10T09:57:13.380Z,16.45
2019-01-10T09:58:30.280Z,18.55
2019-01-10T09:59:50.944Z,26.35
2019-01-10T10:01:07.476Z,18.70
2019-01-10T10:02:23.914Z,24.00
2019-01-10T10:03:40.051Z,9.80
2019-01-10T10:04:56.327Z,31.00
2019-01-10T10:06:14.148Z,18.32
2019-01-10T10:07:32.827Z,20.85
2019-01-10T10:08:48.727Z,19.90
2019-01-10T10:10:06.645Z,10.72
2019-01-10T10:11:22.670Z,27.65
2019-01-10T10:12:39.691Z,11.40
2019-01-10T10:16:14.006Z,13.08
2019-01-10T10:17:20.435Z,11.18
2019-01-10T10:18:36.340Z,16.85
2019-01-10T10:19:52.503Z,17.15
2019-01-10T10:21:08.844Z,11.45
2019-01-10T10:22:25.841Z,16.30
2019-01-10T10:23:41.777Z,13.80
2019-01-10T10:24:58.211Z,19.73
2019-01-10T10:26:15.167Z,18.32
2019-01-10T10:27:31.342Z,18.75
2019-01-10T10:28:48.426Z,13.95
2019-01-10T10:30:04.484Z,18.23
2019-01-10T10:31:20.866Z,21.60
2019-01-10T10:32:40.039Z,19.85
2019-01-10T10:33:56.571Z,21.75
2019-01-10T10:35:12.757Z,35.58
2019-01-10T10:37:57.055Z,15.17
2019-01-10T10:39:13.177Z,13.75
2019-01-10T10:40:30.494Z,17.15
2019-01-10T10:41:46.946Z,21.07
2019-01-10T10:43:03.552Z,12.80
2019-01-10T10:44:11.203Z,11.22
2019-01-10T10:45:35.521Z,15.43
2019-01-10T10:46:51.822Z,13.30
2019-01-10T10:48:08.596Z,14.13
2019-01-10T10:49:27.703Z,14.50
2019-01-10T10:50:44.495Z,15.53
2019-01-10T10:52:01.721Z,10.15
2019-01-10T10:53:26.068Z,16.35
2019-01-10T10:54:45.862Z,12.80
2019-01-10T10:56:02.200Z,20.23
2019-01-10T10:57:19.193Z,14.43
2019-01-10T10:58:36.354Z,11.05
2019-01-10T11:00:11.537Z,21.62
2019-01-10T11:01:17.688Z,16.17
2019-01-10T11:02:33.721Z,23.75
2019-01-10T11:03:49.855Z,15.32
2019-01-10T11:05:06.206Z,19.10
2019-01-10T11:06:22.227Z,14.93
2019-01-10T11:07:39.042Z,17.37
2019-01-10T11:08:58.650Z,18.62
2019-01-10T11:10:17.093Z,11.45
2019-01-10T11:11:33.010Z,15.53
2019-01-10T11:12:49.811Z,19.87
2019-01-10T11:14:07.814Z,11.35
2019-01-10T11:15:24.148Z,14.25
2019-01-10T11:16:40.705Z,14.65
2019-01-10T11:17:56.970Z,19.65
2019-01-10T11:19:16.594Z,28.80
2019-01-10T11:20:33.083Z,36.45
2019-01-10T11:21:49.488Z,30.72
2019-01-10T11:23:10.863Z,27.45
2019-01-10T11:24:24.336Z,19.98
2019-01-10T11:25:40.317Z,21.65
2019-01-10T11:26:57.764Z,13.43
2019-01-10T11:28:14.436Z,20.05
2019-01-10T11:29:20.314Z,18.00
2019-01-10T11:30:58.073Z,14.95
2019-01-10T11:32:23.753Z,46.70
2019-01-10T11:33:30.135Z,89.07
2019-01-10T11:34:46.537Z,91.00
2019-01-10T11:36:03.451Z,81.15
2019-01-10T11:37:19.695Z,57.65
2019-01-10T11:38:36.361Z,65.12
2019-01-10T11:40:00.304Z,59.18
2019-01-10T11:41:16.838Z,36.40
2019-01-10T11:42:33.580Z,33.98
2019-01-10T11:43:52.464Z,24.87
2019-01-10T11:46:43.529Z,25.43
2019-01-10T11:51:55.162Z,16.57
2019-01-10T11:56:01.843Z,17.73
2019-01-10T11:59:05.024Z,17.70
2019-01-10T12:02:25.319Z,12.03
2019-01-10T12:03:45.859Z,11.65
2019-01-10T12:05:02.810Z,24.65
2019-01-10T12:09:21.118Z,14.90
2019-01-10T12:12:11.749Z,16.42
2019-01-10T12:13:28.219Z,22.35
2019-01-10T12:14:44.089Z,14.95
2019-01-10T12:16:03.341Z,21.93
2019-01-10T12:17:20.004Z,12.58
2019-01-10T12:18:36.870Z,13.15
2019-01-10T12:19:52.780Z,18.80
2019-01-10T12:21:09.683Z,86.82
2019-01-10T12:24:24.025Z,84.10
2019-01-10T12:25:40.357Z,46.20
2019-01-10T12:26:58.457Z,26.12
2019-01-10T12:28:14.764Z,15.75
2019-01-10T12:29:36.216Z,15.75
2019-01-10T12:31:14.755Z,17.70
2019-01-10T12:32:15.392Z,12.37
2019-01-10T12:33:35.436Z,14.73
2019-01-10T12:34:52.253Z,16.82
2019-01-10T12:36:09.169Z,21.30
2019-01-10T12:38:49.724Z,16.42
2019-01-10T12:40:05.811Z,26.65
2019-01-10T12:41:25.261Z,21.93
2019-01-10T12:42:41.573Z,20.55
2019-01-10T12:43:59.067Z,16.73
2019-01-10T12:45:15.055Z,13.35
2019-01-10T12:46:37.386Z,19.27
2019-01-10T12:47:49.564Z,17.25
2019-01-10T12:49:05.983Z,23.00
2019-01-10T12:50:25.600Z,12.00
2019-01-10T12:51:42.730Z,13.85
2019-01-10T12:53:01.665Z,23.65
2019-01-10T12:54:21.897Z,13.98
2019-01-10T12:55:37.683Z,16.82
2019-01-10T12:56:53.642Z,13.10
2019-01-10T12:57:58.478Z,18.77
2019-01-10T13:00:52.742Z,15.83
2019-01-10T13:02:11.515Z,14.23
2019-01-10T13:03:33.103Z,275.18
2019-01-10T13:04:50.419Z,168.70
2019-01-10T13:06:06.525Z,75.03
2019-01-10T13:07:24.210Z,67.80
2019-01-10T13:08:42.375Z,128.07
2019-01-10T13:10:01.801Z,86.50
2019-01-10T13:11:18.878Z,88.15
2019-01-10T13:12:35.711Z,44.10
2019-01-10T13:13:52.576Z,34.48
2019-01-10T13:16:51.157Z,22.17
2019-01-10T13:18:13.278Z,19.02
2019-01-10T13:19:53.841Z,25.25
2019-01-10T13:21:00.738Z,13.83
2019-01-10T13:22:18.607Z,18.57
2019-01-10T13:23:35.895Z,22.40
2019-01-10T13:24:52.734Z,20.27
2019-01-10T13:26:28.366Z,22.30
2019-01-10T13:27:37.066Z,17.87
2019-01-10T13:29:11.584Z,23.90
2019-01-10T13:30:17.635Z,22.73
2019-01-10T13:31:34.353Z,15.05
2019-01-10T13:32:52.234Z,15.58
2019-01-10T13:34:10.089Z,22.20
2019-01-10T13:35:46.365Z,22.13
2019-01-10T13:37:05.759Z,18.25
2019-01-10T13:38:21.875Z,26.95
2019-01-10T13:41:14.383Z,92.22
2019-01-10T13:42:44.618Z,59.08
2019-01-10T13:43:52.612Z,65.72
2019-01-10T13:45:12.206Z,58.10
2019-01-10T13:46:55.305Z,30.20
2019-01-10T13:48:13.228Z,30.32
2019-01-10T13:49:17.849Z,25.95
2019-01-10T13:50:36.120Z,21.23
2019-01-10T13:52:02.332Z,20.97
2019-01-10T13:53:47.584Z,23.67
2019-01-10T13:55:04.381Z,21.57
2019-01-10T13:56:21.996Z,17.15
2019-01-10T13:57:28.187Z,20.92
2019-01-10T14:00:19.595Z,22.27
2019-01-10T14:01:25.934Z,17.35
2019-01-10T14:02:53.034Z,16.93
2019-01-10T14:04:09.306Z,19.95
2019-01-10T14:05:25.702Z,20.88
2019-01-10T14:06:30.676Z,23.85
2019-01-10T14:08:06.484Z,23.27
2019-01-10T14:10:44.730Z,16.80
2019-01-10T14:12:01.678Z,32.28
2019-01-10T14:14:34.944Z,19.52
2019-01-10T14:15:55.720Z,24.23
2019-01-10T14:17:01.853Z,17.70
2019-01-10T14:18:28.095Z,17.95
2019-01-10T14:19:44.025Z,27.35
2019-01-10T14:21:00.562Z,21.27
2019-01-10T14:22:05.978Z,19.67
2019-01-10T14:23:13.749Z,27.35
2019-01-10T14:24:18.754Z,20.82
2019-01-10T14:25:23.957Z,18.52
2019-01-10T14:26:32.136Z,21.02
2019-01-10T14:27:37.093Z,15.98
2019-01-10T14:28:42.005Z,20.15
2019-01-10T14:30:13.291Z,24.92
2019-01-10T14:31:30.118Z,16.07
2019-01-10T14:32:47.389Z,25.77
2019-01-10T14:34:03.588Z,18.55
2019-01-10T14:35:20.575Z,23.45
2019-01-10T14:36:36.807Z,20.20
2019-01-10T14:37:55.803Z,16.55
2019-01-10T14:39:12.167Z,29.15
2019-01-10T14:40:29.319Z,15.50
2019-01-10T14:41:45.250Z,16.80
2019-01-10T14:43:01.490Z,17.70
2019-01-10T14:44:17.426Z,17.77
2019-01-10T14:47:46.148Z,18.10
2019-01-10T14:48:55.172Z,17.60
2019-01-10T14:50:12.187Z,25.60
2019-01-10T14:51:28.157Z,18.75
2019-01-10T14:52:48.009Z,19.45
2019-01-10T14:54:04.425Z,20.37
2019-01-10T14:55:19.652Z,17.87
2019-01-10T14:58:20.897Z,23.73
2019-01-10T14:59:37.487Z,15.83
2019-01-10T15:00:54.257Z,25.32
2019-01-10T15:03:38.484Z,50.00
2019-01-10T15:04:54.367Z,42.33
2019-01-10T15:06:10.851Z,47.27
2019-01-10T15:07:26.811Z,52.67
2019-01-10T15:08:43.359Z,26.17
2019-01-10T15:09:59.354Z,26.70
2019-01-10T15:11:16.616Z,19.60
2019-01-10T15:12:33.681Z,21.73
2019-01-10T15:15:38.927Z,19.82
2019-01-10T15:16:55.528Z,17.15
2019-01-10T15:18:11.444Z,15.80
2019-01-10T15:20:49.081Z,18.45
2019-01-10T15:23:34.852Z,21.57
2019-01-10T15:26:24.786Z,18.15
2019-01-10T15:27:42.770Z,21.10
2019-01-10T15:28:59.252Z,25.02
2019-01-10T15:30:15.963Z,24.87
2019-01-10T15:31:33.184Z,17.17
2019-01-10T15:32:49.976Z,19.23
2019-01-10T15:34:06.989Z,15.63
2019-01-10T15:35:23.956Z,15.40
2019-01-10T15:36:40.717Z,19.17
2019-01-10T15:37:56.760Z,17.48
2019-01-10T15:39:12.867Z,14.55
2019-01-10T15:40:32.695Z,28.38
2019-01-10T15:41:49.042Z,28.50
2019-01-10T15:43:05.088Z,46.65
2019-01-10T15:44:21.662Z,40.00
2019-01-10T15:45:44.310Z,36.77
2019-01-10T15:47:00.346Z,40.83
2019-01-10T15:48:17.381Z,30.02
2019-01-10T15:49:33.530Z,17.98
2019-01-10T15:50:49.767Z,19.37
2019-01-10T15:52:06.461Z,28.32
2019-01-10T15:53:23.307Z,19.02
2019-01-10T15:55:58.208Z,17.00
2019-01-10T15:57:23.812Z,17.98
2019-01-10T15:58:46.368Z,17.77
2019-01-10T16:00:05.197Z,19.45
2019-01-10T16:02:46.492Z,16.65
2019-01-10T16:04:07.309Z,16.02
2019-01-10T16:05:22.873Z,14.35
2019-01-10T16:06:39.800Z,20.05
2019-01-10T16:07:59.239Z,28.27
2019-01-10T16:11:07.712Z,15.15
2019-01-10T16:12:25.701Z,19.73
2019-01-10T16:13:42.276Z,17.87
2019-01-10T16:15:00.438Z,24.10
2019-01-10T16:16:17.675Z,17.35
2019-01-10T16:17:35.663Z,27.07
2019-01-10T16:18:52.609Z,16.95
2019-01-10T16:21:49.068Z,20.25
2019-01-10T16:28:38.359Z,15.20
2019-01-10T16:30:23.694Z,23.52
2019-01-10T16:31:45.131Z,28.50
2019-01-10T16:33:01.850Z,21.05
2019-01-10T16:34:23.672Z,22.35
2019-01-10T16:35:43.087Z,20.92
2019-01-10T16:37:01.178Z,18.80
2019-01-10T16:38:17.516Z,17.32
2019-01-10T16:39:39.237Z,17.73
2019-01-10T16:40:56.924Z,19.40
2019-01-10T16:42:13.167Z,19.62
2019-01-10T16:43:29.385Z,23.18
2019-01-10T16:44:45.818Z,13.88
2019-01-10T16:47:34.478Z,20.90
2019-01-10T16:48:52.861Z,17.15
2019-01-10T16:50:09.056Z,18.02
2019-01-10T16:51:27.542Z,25.72
2019-01-10T16:52:43.772Z,17.12
2019-01-10T16:54:00.698Z,20.88
2019-01-10T16:55:17.077Z,18.87
2019-01-10T16:56:33.051Z,19.48
2019-01-10T16:57:49.022Z,27.07
2019-01-10T16:59:05.527Z,32.78
2019-01-10T17:00:22.748Z,21.05
2019-01-10T17:02:02.526Z,18.02
2019-01-10T17:04:42.622Z,20.02
2019-01-10T17:06:00.098Z,18.05
2019-01-10T17:07:23.043Z,24.02
2019-01-10T17:08:39.925Z,14.63
2019-01-10T17:09:56.628Z,16.00
2019-01-10T17:11:13.171Z,19.75
2019-01-10T17:12:52.120Z,18.85
2019-01-10T17:13:55.027Z,22.90
2019-01-10T17:15:11.420Z,22.65
2019-01-10T17:16:28.333Z,19.10
2019-01-10T17:17:46.314Z,24.10
2019-01-10T17:19:03.157Z,24.15
2019-01-10T17:20:20.933Z,23.60
2019-01-10T17:21:41.400Z,17.85
2019-01-10T17:22:57.809Z,25.82
2019-01-10T17:24:14.611Z,25.27
2019-01-10T17:25:34.472Z,20.15
2019-01-10T17:26:51.424Z,19.75
2019-01-10T17:29:28.194Z,19.85
2019-01-10T17:30:47.462Z,17.23
2019-01-10T17:32:03.507Z,10.15
2019-01-10T17:33:11.702Z,21.80
2019-01-10T17:34:16.450Z,20.15
2019-01-10T17:35:25.065Z,33.38
2019-01-10T17:36:29.732Z,16.25
2019-01-10T17:37:53.648Z,18.73
2019-01-10T17:40:54.842Z,18.67
2019-01-10T17:42:24.565Z,16.12
2019-01-10T17:43:31.300Z,21.60
2019-01-10T17:44:43.597Z,15.45
2019-01-10T17:48:16.064Z,18.95